createdAt,value
2023-04-29T00:01:33.347Z,13.12
2023-04-29T00:04:00.342Z,13.12
2023-04-29T00:06:28.544Z,13.11
2023-04-29T00:08:55.855Z,13.08
2023-04-29T00:11:24.760Z,12.99
2023-04-29T00:13:51.542Z,12.93
2023-04-29T00:16:18.657Z,12.96
2023-04-29T00:18:48.751Z,12.97
2023-04-29T00:21:15.938Z,12.98
2023-04-29T00:23:42.786Z,12.98
2023-04-29T00:26:09.640Z,12.99
2023-04-29T00:28:36.440Z,12.94
2023-04-29T00:31:03.404Z,12.96
2023-04-29T00:33:33.240Z,12.94
2023-04-29T00:36:07.553Z,12.93
2023-04-29T00:38:34.470Z,12.95
2023-04-29T00:41:02.609Z,12.93
2023-04-29T00:43:30.750Z,12.88
2023-04-29T00:45:57.728Z,12.86
2023-04-29T00:48:24.734Z,12.83
2023-04-29T00:50:51.944Z,12.80
2023-04-29T00:53:18.968Z,12.79
2023-04-29T00:55:48.361Z,12.78
2023-04-29T00:58:15.530Z,12.77
2023-04-29T01:00:43.956Z,12.72
2023-04-29T01:03:11.211Z,12.71
2023-04-29T01:05:38.596Z,12.69
2023-04-29T01:08:49.421Z,12.72
2023-04-29T01:11:23.808Z,12.75
2023-04-29T01:14:03.339Z,12.72
2023-04-29T01:16:59.638Z,12.69
2023-04-29T01:19:48.190Z,12.72
2023-04-29T01:22:17.617Z,12.70
2023-04-29T01:24:44.914Z,12.70
2023-04-29T01:27:39.712Z,12.70
2023-04-29T01:30:27.589Z,12.72
2023-04-29T01:33:15.568Z,12.70
2023-04-29T01:36:22.113Z,12.67
2023-04-29T01:39:16.524Z,12.67
2023-04-29T01:41:45.207Z,12.65
2023-04-29T01:44:21.926Z,12.65
2023-04-29T01:46:54.435Z,12.61
2023-04-29T01:49:29.168Z,12.60
2023-04-29T01:51:56.377Z,12.60
2023-04-29T01:54:23.476Z,12.58
2023-04-29T01:56:50.947Z,12.55
2023-04-29T01:59:17.915Z,12.54
2023-04-29T02:01:44.714Z,12.56
2023-04-29T02:04:11.628Z,12.58
2023-04-29T02:06:38.417Z,12.55
2023-04-29T02:09:05.415Z,12.56
2023-04-29T02:11:32.157Z,12.57
2023-04-29T02:13:58.934Z,12.54
2023-04-29T02:16:26.116Z,12.51
2023-04-29T02:18:53.451Z,12.46
2023-04-29T02:21:22.779Z,12.45
2023-04-29T02:23:50.496Z,12.43
2023-04-29T02:26:17.451Z,12.45
2023-04-29T02:28:44.340Z,12.47
2023-04-29T02:31:11.180Z,12.48
2023-04-29T02:33:38.045Z,12.48
2023-04-29T02:36:05.376Z,12.51
2023-04-29T02:38:32.901Z,12.51
2023-04-29T02:40:59.832Z,12.45
2023-04-29T02:43:26.729Z,12.43
2023-04-29T02:45:56.212Z,12.43
2023-04-29T02:48:23.396Z,12.31
2023-04-29T02:50:50.520Z,12.32
2023-04-29T02:53:17.375Z,12.27
2023-04-29T02:55:44.198Z,12.13
2023-04-29T02:58:11.026Z,12.06
2023-04-29T03:00:37.984Z,12.04
2023-04-29T03:03:05.059Z,12.06
2023-04-29T03:05:32.102Z,12.06
2023-04-29T03:07:58.970Z,12.06
2023-04-29T03:10:26.188Z,12.05
2023-04-29T03:12:58.022Z,12.03
2023-04-29T03:15:24.866Z,12.03
2023-04-29T03:17:52.150Z,12.02
2023-04-29T03:20:19.499Z,11.95
2023-04-29T03:22:46.599Z,11.93
2023-04-29T03:25:13.490Z,11.95
2023-04-29T03:27:40.327Z,11.98
2023-04-29T03:30:09.051Z,11.93
2023-04-29T03:32:35.979Z,11.88
2023-04-29T03:35:03.383Z,11.90
2023-04-29T03:37:30.192Z,11.92
2023-04-29T03:39:57.247Z,11.91
2023-04-29T03:42:24.305Z,11.91
2023-04-29T03:44:51.128Z,11.91
2023-04-29T03:47:18.292Z,11.88
2023-04-29T03:49:45.836Z,11.86
2023-04-29T03:52:12.768Z,11.85
2023-04-29T03:54:39.617Z,11.82
2023-04-29T03:57:06.450Z,11.83
2023-04-29T03:59:33.173Z,11.84
2023-04-29T04:02:00.431Z,11.85
2023-04-29T04:04:30.449Z,11.84
2023-04-29T04:06:57.807Z,11.87
2023-04-29T04:09:24.602Z,11.89
2023-04-29T04:11:51.311Z,11.89
2023-04-29T04:14:18.915Z,11.94
2023-04-29T04:16:45.875Z,11.94
2023-04-29T04:19:12.772Z,11.95
2023-04-29T04:21:39.636Z,11.98
2023-04-29T04:24:07.295Z,12.06
2023-04-29T04:26:34.332Z,12.11
2023-04-29T04:29:01.128Z,12.15
2023-04-29T04:31:28.617Z,12.18
2023-04-29T04:33:56.656Z,12.17
2023-04-29T04:36:23.505Z,12.13
2023-04-29T04:38:50.452Z,12.14
2023-04-29T04:41:17.634Z,12.16
2023-04-29T04:43:45.021Z,12.19
2023-04-29T04:46:15.105Z,12.23
2023-04-29T04:48:42.705Z,12.27
2023-04-29T04:51:14.048Z,12.29
2023-04-29T04:53:41.127Z,12.34
2023-04-29T04:56:08.515Z,12.37
2023-04-29T04:58:35.690Z,12.43
2023-04-29T05:01:02.630Z,12.51
2023-04-29T05:03:29.772Z,12.60
2023-04-29T05:06:01.379Z,12.66
2023-04-29T05:08:28.561Z,12.73
2023-04-29T05:10:55.554Z,12.78
2023-04-29T05:13:22.481Z,12.81
2023-04-29T05:15:49.861Z,12.85
2023-04-29T05:18:16.870Z,12.84
2023-04-29T05:20:46.135Z,12.86
2023-04-29T05:23:12.948Z,12.88
2023-04-29T05:25:39.741Z,12.89
2023-04-29T05:28:07.662Z,12.89
2023-04-29T05:30:35.091Z,12.90
2023-04-29T05:33:02.075Z,12.94
2023-04-29T05:35:29.032Z,12.96
2023-04-29T05:37:55.965Z,12.99
2023-04-29T05:40:23.205Z,12.99
2023-04-29T05:42:50.372Z,13.00
2023-04-29T05:45:17.682Z,13.04
2023-04-29T05:47:44.615Z,13.00
2023-04-29T05:50:11.726Z,12.96
2023-04-29T05:52:39.429Z,12.94
2023-04-29T05:55:06.584Z,12.90
2023-04-29T05:57:33.525Z,12.92
2023-04-29T06:00:00.654Z,12.97
2023-04-29T06:02:28.405Z,13.01
2023-04-29T06:04:55.758Z,13.04
2023-04-29T06:07:23.979Z,13.06
2023-04-29T06:09:51.452Z,13.05
2023-04-29T06:12:18.503Z,13.01
2023-04-29T06:14:45.410Z,13.00
2023-04-29T06:17:12.818Z,13.05
2023-04-29T06:19:39.714Z,13.09
2023-04-29T06:22:06.475Z,13.10
2023-04-29T06:24:33.242Z,13.17
2023-04-29T06:27:00.314Z,13.25
2023-04-29T06:29:27.086Z,13.33
2023-04-29T06:31:56.745Z,13.40
2023-04-29T06:34:26.447Z,13.49
2023-04-29T06:36:53.346Z,13.57
2023-04-29T06:39:20.399Z,13.64
2023-04-29T06:41:47.237Z,13.68
2023-04-29T06:44:14.108Z,13.79
2023-04-29T06:46:44.502Z,13.88
2023-04-29T06:49:11.943Z,13.89
2023-04-29T06:51:38.940Z,13.87
2023-04-29T06:54:05.995Z,13.92
2023-04-29T06:56:32.876Z,13.96
2023-04-29T06:58:59.819Z,13.94
2023-04-29T07:01:26.707Z,13.91
2023-04-29T07:03:54.967Z,13.87
2023-04-29T07:06:21.898Z,13.83
2023-04-29T07:08:48.897Z,13.80
2023-04-29T07:11:16.156Z,13.79
2023-04-29T07:13:44.160Z,13.86
2023-04-29T07:16:19.982Z,13.86
2023-04-29T07:18:48.105Z,13.88
2023-04-29T07:21:15.114Z,13.86
2023-04-29T07:23:42.027Z,13.87
2023-04-29T07:26:17.292Z,13.81
2023-04-29T07:28:45.611Z,13.78
2023-04-29T07:31:12.711Z,13.71
2023-04-29T07:33:40.058Z,13.73
2023-04-29T07:36:10.141Z,13.74
2023-04-29T07:38:37.194Z,13.76
2023-04-29T07:41:07.175Z,13.74
2023-04-29T07:43:34.381Z,13.71
2023-04-29T07:46:01.277Z,13.81
2023-04-29T07:48:28.219Z,13.89
2023-04-29T07:50:55.312Z,13.94
2023-04-29T07:53:22.203Z,13.91
2023-04-29T07:55:49.174Z,13.91
2023-04-29T07:58:15.947Z,13.96
2023-04-29T08:00:42.844Z,13.99
2023-04-29T08:03:10.570Z,14.01
2023-04-29T08:05:37.759Z,13.86
2023-04-29T08:08:05.209Z,13.78
2023-04-29T08:10:32.099Z,13.81
2023-04-29T08:12:59.112Z,13.80
2023-04-29T08:15:26.150Z,13.84
2023-04-29T08:17:53.126Z,13.93
2023-04-29T08:20:20.338Z,13.98
2023-04-29T08:22:48.047Z,14.01
2023-04-29T08:25:14.948Z,14.00
2023-04-29T08:27:43.545Z,13.97
2023-04-29T08:30:10.912Z,13.99
2023-04-29T08:32:38.022Z,14.03
2023-04-29T08:35:05.388Z,14.11
2023-04-29T08:37:32.433Z,14.16
2023-04-29T08:39:59.296Z,14.19
2023-04-29T08:42:36.371Z,14.28
2023-04-29T08:45:07.327Z,14.27
2023-04-29T08:47:34.620Z,14.24
2023-04-29T08:50:06.515Z,14.18
2023-04-29T08:52:34.190Z,14.01
2023-04-29T08:55:06.037Z,13.98
2023-04-29T08:57:40.200Z,14.00
2023-04-29T09:00:11.927Z,13.98
2023-04-29T09:02:49.367Z,14.05
2023-04-29T09:05:21.991Z,14.09
2023-04-29T09:07:51.874Z,14.11
2023-04-29T09:10:19.465Z,14.12
2023-04-29T09:12:46.784Z,14.15
2023-04-29T09:15:14.148Z,14.11
2023-04-29T09:17:47.643Z,14.13
2023-04-29T09:20:21.520Z,14.12
2023-04-29T09:22:55.728Z,14.16
2023-04-29T09:25:23.341Z,14.21
2023-04-29T09:27:50.689Z,14.25
2023-04-29T09:30:17.710Z,14.32
2023-04-29T09:32:46.046Z,14.37
2023-04-29T09:35:28.007Z,14.30
2023-04-29T09:38:15.489Z,14.25
2023-04-29T09:40:58.229Z,14.21
2023-04-29T09:43:27.040Z,14.18
2023-04-29T09:45:54.447Z,14.20
2023-04-29T09:48:21.914Z,14.23
2023-04-29T09:51:02.650Z,14.22
2023-04-29T09:53:31.995Z,14.21
2023-04-29T09:56:02.712Z,14.17
2023-04-29T09:58:38.218Z,14.24
2023-04-29T10:01:07.616Z,14.25
2023-04-29T10:03:37.328Z,14.27
2023-04-29T10:06:07.715Z,14.19
2023-04-29T10:08:35.892Z,14.24
2023-04-29T10:11:05.943Z,14.27
2023-04-29T10:13:38.221Z,14.31
2023-04-29T10:16:33.996Z,14.36
2023-04-29T10:19:07.374Z,14.40
2023-04-29T10:21:34.671Z,14.59
2023-04-29T10:24:04.113Z,14.72
2023-04-29T10:26:32.420Z,14.85
2023-04-29T10:29:01.945Z,15.09
2023-04-29T10:31:32.229Z,15.23
2023-04-29T10:34:00.396Z,15.35
2023-04-29T10:36:31.461Z,15.41
2023-04-29T10:39:07.751Z,15.41
2023-04-29T10:41:48.191Z,15.30
2023-04-29T10:44:15.444Z,15.29
2023-04-29T10:46:42.295Z,15.32
2023-04-29T10:49:11.377Z,15.32
2023-04-29T10:51:48.446Z,15.31
2023-04-29T10:54:18.993Z,15.20
2023-04-29T10:56:50.949Z,15.15
2023-04-29T10:59:33.396Z,15.19
2023-04-29T11:02:00.563Z,15.14
2023-04-29T11:04:27.691Z,15.13
2023-04-29T11:07:02.482Z,15.18
2023-04-29T11:09:33.989Z,15.22
2023-04-29T11:12:05.923Z,15.29
2023-04-29T11:14:44.166Z,15.34
2023-04-29T11:17:16.238Z,15.20
2023-04-29T11:19:47.457Z,15.10
2023-04-29T11:22:23.315Z,15.00
2023-04-29T11:24:50.949Z,14.93
2023-04-29T11:27:20.505Z,14.83
2023-04-29T11:29:50.064Z,14.64
2023-04-29T11:32:21.458Z,14.60
2023-04-29T11:34:48.401Z,14.53
2023-04-29T11:37:24.986Z,14.47
2023-04-29T11:39:54.045Z,14.42
2023-04-29T11:42:22.523Z,14.40
2023-04-29T11:44:56.826Z,14.33
2023-04-29T11:47:29.586Z,14.32
2023-04-29T11:50:08.910Z,14.32
2023-04-29T11:52:42.882Z,14.26
2023-04-29T11:55:11.719Z,14.22
2023-04-29T11:57:40.298Z,14.25
2023-04-29T12:00:12.961Z,14.26
2023-04-29T12:02:44.864Z,14.26
2023-04-29T12:05:17.491Z,14.22
2023-04-29T12:07:44.689Z,14.23
2023-04-29T12:10:12.718Z,14.24
2023-04-29T12:12:43.253Z,14.25
2023-04-29T12:15:10.948Z,14.35
2023-04-29T12:17:39.432Z,14.52
2023-04-29T12:20:11.168Z,14.70
2023-04-29T12:22:38.561Z,14.85
2023-04-29T12:25:07.320Z,14.97
2023-04-29T12:27:37.013Z,14.99
2023-04-29T12:30:09.366Z,15.01
2023-04-29T12:32:37.151Z,14.96
2023-04-29T12:35:04.795Z,14.96
2023-04-29T12:37:33.230Z,14.95
2023-04-29T12:40:00.152Z,14.85
2023-04-29T12:42:34.045Z,14.79
2023-04-29T12:45:00.901Z,14.76
2023-04-29T12:47:36.971Z,14.79
2023-04-29T12:50:07.089Z,14.79
2023-04-29T12:52:36.396Z,14.76
2023-04-29T12:55:04.688Z,14.74
2023-04-29T12:57:31.922Z,14.75
2023-04-29T12:59:58.878Z,14.79
2023-04-29T13:02:26.424Z,14.77
2023-04-29T13:04:53.699Z,14.72
2023-04-29T13:07:20.994Z,14.74
2023-04-29T13:09:48.266Z,14.73
2023-04-29T13:12:15.476Z,14.70
2023-04-29T13:14:42.371Z,14.68
2023-04-29T13:17:10.695Z,14.69
2023-04-29T13:19:50.666Z,14.69
2023-04-29T13:22:19.126Z,14.67
2023-04-29T13:24:46.915Z,14.62
2023-04-29T13:27:14.261Z,14.56
2023-04-29T13:29:41.315Z,14.62
2023-04-29T13:32:09.086Z,14.70
2023-04-29T13:34:36.534Z,14.73
2023-04-29T13:37:03.805Z,14.72
2023-04-29T13:39:31.624Z,14.73
2023-04-29T13:41:59.781Z,14.68
2023-04-29T13:44:34.314Z,14.62
2023-04-29T13:47:20.026Z,14.60
2023-04-29T13:58:13.358Z,14.72
2023-04-29T14:00:38.252Z,14.73
2023-04-29T14:03:03.450Z,14.74
2023-04-29T14:05:30.832Z,14.72
2023-04-29T14:07:57.851Z,14.73
2023-04-29T14:10:27.570Z,14.72
2023-04-29T14:12:54.920Z,14.74
2023-04-29T14:15:21.760Z,14.76
2023-04-29T14:17:50.320Z,14.75
2023-04-29T14:20:17.375Z,14.75
2023-04-29T14:22:44.653Z,14.73
2023-04-29T14:25:12.429Z,14.68
2023-04-29T14:27:39.388Z,14.66
2023-04-29T14:30:07.530Z,14.67
2023-04-29T14:32:34.648Z,14.72
2023-04-29T14:35:01.554Z,14.76
2023-04-29T14:37:28.521Z,14.72
2023-04-29T14:39:55.480Z,14.72
2023-04-29T14:42:22.442Z,14.71
2023-04-29T14:44:49.391Z,14.75
2023-04-29T14:47:16.782Z,14.73
2023-04-29T14:49:43.785Z,14.67
2023-04-29T14:52:10.771Z,14.67
2023-04-29T14:54:38.115Z,14.67
2023-04-29T14:57:08.083Z,14.70
2023-04-29T14:59:38.859Z,14.70
2023-04-29T15:02:06.027Z,14.69
2023-04-29T15:04:32.949Z,14.66
2023-04-29T15:07:02.452Z,14.60
2023-04-29T15:09:32.163Z,14.52
2023-04-29T15:12:02.059Z,14.47
2023-04-29T15:14:28.928Z,14.45
2023-04-29T15:16:56.012Z,14.43
2023-04-29T15:19:26.366Z,14.41
2023-04-29T15:21:53.368Z,14.38
2023-04-29T15:24:21.339Z,14.31
2023-04-29T15:26:48.285Z,14.26
2023-04-29T15:29:18.562Z,14.26
2023-04-29T15:31:49.557Z,14.29
2023-04-29T15:34:16.403Z,14.29
2023-04-29T15:36:50.935Z,14.32
2023-04-29T15:39:17.875Z,14.40
2023-04-29T15:41:44.683Z,14.45
2023-04-29T15:44:13.998Z,14.46
2023-04-29T15:46:44.004Z,14.44
2023-04-29T15:49:12.360Z,14.40
2023-04-29T15:51:39.641Z,14.36
2023-04-29T15:54:07.992Z,14.33
2023-04-29T15:56:34.864Z,14.32
2023-04-29T15:59:01.779Z,14.26
2023-04-29T16:01:28.881Z,14.27
2023-04-29T16:03:55.950Z,14.28
2023-04-29T16:06:23.230Z,14.27
2023-04-29T16:08:50.226Z,14.28
2023-04-29T16:11:17.008Z,14.27
2023-04-29T16:13:44.339Z,14.24
2023-04-29T16:16:11.229Z,14.23
2023-04-29T16:18:39.147Z,14.23
2023-04-29T16:21:06.254Z,14.25
2023-04-29T16:23:33.107Z,14.25
2023-04-29T16:26:01.319Z,14.28
2023-04-29T16:28:30.997Z,14.24
2023-04-29T16:31:00.452Z,14.19
2023-04-29T16:33:27.363Z,14.20
2023-04-29T16:35:54.414Z,14.17
2023-04-29T16:38:23.015Z,14.15
2023-04-29T16:40:50.945Z,14.11
2023-04-29T16:43:20.702Z,14.07
2023-04-29T16:45:47.521Z,14.01
2023-04-29T16:48:14.417Z,13.97
2023-04-29T16:50:41.364Z,13.99
2023-04-29T16:53:08.169Z,13.97
2023-04-29T16:55:35.010Z,13.97
2023-04-29T16:58:01.807Z,13.97
2023-04-29T17:00:28.807Z,13.95
2023-04-29T17:02:58.343Z,13.92
2023-04-29T17:05:26.427Z,13.93
2023-04-29T17:07:55.065Z,13.90
2023-04-29T17:10:24.899Z,13.85
2023-04-29T17:12:51.736Z,13.83
2023-04-29T17:15:18.543Z,13.84
2023-04-29T17:17:46.529Z,13.83
2023-04-29T17:20:13.826Z,13.83
2023-04-29T17:22:41.930Z,13.85
2023-04-29T17:25:10.435Z,13.83
2023-04-29T17:27:37.458Z,13.82
2023-04-29T17:30:06.189Z,13.81
2023-04-29T17:32:38.991Z,13.85
2023-04-29T17:35:07.631Z,13.79
2023-04-29T17:37:35.436Z,13.80
2023-04-29T17:40:03.309Z,13.80
2023-04-29T17:42:30.149Z,13.81
2023-04-29T17:44:57.020Z,13.78
2023-04-29T17:47:24.016Z,13.74
2023-04-29T17:49:52.091Z,13.74
2023-04-29T17:52:21.320Z,13.74
2023-04-29T17:54:48.780Z,13.62
2023-04-29T17:57:15.696Z,13.58
2023-04-29T17:59:42.504Z,13.62
2023-04-29T18:02:10.708Z,13.60
2023-04-29T18:04:37.562Z,13.62
2023-04-29T18:07:04.413Z,13.61
2023-04-29T18:09:33.028Z,13.58
2023-04-29T18:12:00.139Z,13.57
2023-04-29T18:14:29.026Z,13.55
2023-04-29T18:16:56.537Z,13.51
2023-04-29T18:19:23.328Z,13.50
2023-04-29T18:21:50.725Z,13.51
2023-04-29T18:24:17.628Z,13.48
2023-04-29T18:26:45.099Z,13.48
2023-04-29T18:29:12.278Z,13.51
2023-04-29T18:31:39.227Z,13.50
2023-04-29T18:34:06.196Z,13.45
2023-04-29T18:36:34.339Z,13.48
2023-04-29T18:39:01.330Z,13.46
2023-04-29T18:41:28.225Z,13.42
2023-04-29T18:43:55.255Z,13.40
2023-04-29T18:46:22.303Z,13.37
2023-04-29T18:48:49.139Z,13.34
2023-04-29T18:51:16.257Z,13.32
2023-04-29T18:53:43.136Z,13.29
2023-04-29T18:56:10.129Z,13.28
2023-04-29T18:58:37.030Z,13.31
2023-04-29T19:01:03.936Z,13.30
2023-04-29T19:03:31.504Z,13.32
2023-04-29T19:05:58.285Z,13.29
2023-04-29T19:08:26.155Z,13.21
2023-04-29T19:10:54.063Z,13.07
2023-04-29T19:13:21.125Z,12.95
2023-04-29T19:15:50.826Z,12.85
2023-04-29T19:18:23.008Z,12.80
2023-04-29T19:20:50.461Z,12.83
2023-04-29T19:23:17.344Z,12.84
2023-04-29T19:25:44.121Z,12.83
2023-04-29T19:28:10.945Z,12.72
2023-04-29T19:30:39.225Z,12.64
2023-04-29T19:33:06.040Z,12.67
2023-04-29T19:35:32.933Z,12.65
2023-04-29T19:37:59.752Z,12.62
2023-04-29T19:40:27.154Z,12.63
2023-04-29T19:42:54.241Z,12.62
2023-04-29T19:45:21.478Z,12.54
2023-04-29T19:47:49.861Z,12.41
2023-04-29T19:50:16.745Z,12.31
2023-04-29T19:52:43.596Z,12.27
2023-04-29T19:55:10.793Z,12.25
2023-04-29T19:57:38.789Z,12.15
2023-04-29T20:00:06.835Z,12.14
2023-04-29T20:02:33.954Z,12.16
2023-04-29T20:05:03.835Z,12.21
2023-04-29T20:07:30.926Z,12.23
2023-04-29T20:09:57.825Z,12.14
2023-04-29T20:12:24.647Z,12.09
2023-04-29T20:14:51.949Z,12.08
2023-04-29T20:17:18.851Z,12.07
2023-04-29T20:19:46.068Z,12.05
2023-04-29T20:22:13.553Z,12.04
2023-04-29T20:24:41.332Z,12.10
2023-04-29T20:27:08.432Z,12.08
2023-04-29T20:29:35.447Z,12.11
2023-04-29T20:32:02.761Z,12.13
2023-04-29T20:34:29.763Z,12.06
2023-04-29T20:36:56.757Z,12.04
2023-04-29T20:39:25.069Z,12.08
2023-04-29T20:41:51.873Z,12.09
2023-04-29T20:44:19.106Z,12.04
2023-04-29T20:46:46.008Z,12.01
2023-04-29T20:49:13.276Z,12.03
2023-04-29T20:51:40.414Z,12.05
2023-04-29T20:54:07.190Z,11.94
2023-04-29T20:56:34.541Z,11.92
2023-04-29T20:59:02.970Z,11.90
2023-04-29T21:01:30.059Z,11.95
2023-04-29T21:03:59.796Z,11.91
2023-04-29T21:06:27.600Z,11.83
2023-04-29T21:08:54.500Z,11.81
2023-04-29T21:11:21.328Z,11.78
2023-04-29T21:13:50.274Z,11.83
2023-04-29T21:16:18.748Z,11.81
2023-04-29T21:18:45.953Z,11.83
2023-04-29T21:21:12.830Z,11.82
2023-04-29T21:23:39.549Z,11.79
2023-04-29T21:26:06.454Z,11.69
2023-04-29T21:28:36.236Z,11.66
2023-04-29T21:31:03.262Z,11.65
2023-04-29T21:33:30.128Z,11.67
2023-04-29T21:35:57.269Z,11.70
2023-04-29T21:38:26.899Z,11.70
2023-04-29T21:40:53.855Z,11.69
2023-04-29T21:43:20.729Z,11.73
2023-04-29T21:45:48.441Z,11.78
2023-04-29T21:48:18.489Z,11.80
2023-04-29T21:50:48.268Z,11.78
2023-04-29T21:53:16.563Z,11.73
2023-04-29T21:55:43.892Z,11.69
2023-04-29T21:58:11.493Z,11.61
2023-04-29T22:00:41.002Z,11.61
2023-04-29T22:03:10.277Z,11.64
2023-04-29T22:05:37.707Z,11.62
2023-04-29T22:08:08.250Z,11.64
2023-04-29T22:10:35.176Z,11.62
2023-04-29T22:13:02.058Z,11.67
2023-04-29T22:15:31.436Z,11.65
2023-04-29T22:17:58.423Z,11.61
2023-04-29T22:20:26.221Z,11.55
2023-04-29T22:22:54.275Z,11.56
2023-04-29T22:25:21.874Z,11.66
2023-04-29T22:27:50.254Z,11.67
2023-04-29T22:30:17.844Z,11.62
2023-04-29T22:32:45.036Z,11.64
2023-04-29T22:35:12.244Z,11.60
2023-04-29T22:37:39.105Z,11.53
2023-04-29T22:40:11.546Z,11.53
2023-04-29T22:42:39.630Z,11.56
2023-04-29T22:45:07.417Z,11.56
2023-04-29T22:47:34.305Z,11.55
2023-04-29T22:50:03.013Z,11.49
2023-04-29T22:52:30.195Z,11.50
2023-04-29T22:54:56.969Z,11.46
2023-04-29T22:57:23.842Z,11.41
2023-04-29T22:59:56.347Z,11.38
2023-04-29T23:02:29.199Z,11.39
2023-04-29T23:04:56.919Z,11.46
2023-04-29T23:07:25.719Z,11.48
2023-04-29T23:09:53.274Z,11.42
2023-04-29T23:12:21.456Z,11.45
2023-04-29T23:14:48.573Z,11.48
2023-04-29T23:17:17.378Z,11.44
2023-04-29T23:19:44.298Z,11.44
2023-04-29T23:22:11.213Z,11.38
2023-04-29T23:24:38.203Z,11.39
2023-04-29T23:27:07.013Z,11.41
2023-04-29T23:29:34.317Z,11.40
2023-04-29T23:32:01.687Z,11.38
2023-04-29T23:34:28.738Z,11.36
2023-04-29T23:36:55.553Z,11.35
2023-04-29T23:39:24.547Z,11.41
2023-04-29T23:41:52.572Z,11.43
2023-04-29T23:44:19.490Z,11.39
2023-04-29T23:46:46.405Z,11.36
2023-04-29T23:49:13.319Z,11.42
2023-04-29T23:51:40.831Z,11.42
2023-04-29T23:54:07.996Z,11.39
2023-04-29T23:56:35.001Z,11.39
2023-04-29T23:59:04.447Z,11.38
